createdAt,value
2017-07-19T00:03:58.029Z,"    0"
2017-07-19T00:08:54.508Z,"    0"
2017-07-19T00:13:52.394Z,"    0"
2017-07-19T00:18:49.348Z,"    0"
2017-07-19T00:23:45.459Z,"    0"
2017-07-19T00:28:42.360Z,"    0"
2017-07-19T00:33:38.043Z,"    0"
2017-07-19T00:38:35.096Z,"    0"
2017-07-19T00:43:32.221Z,"    0"
2017-07-19T00:48:28.071Z,"    0"
2017-07-19T00:53:24.010Z,"    0"
2017-07-19T00:58:21.001Z,"    0"
2017-07-19T01:03:17.008Z,"    0"
2017-07-19T01:08:13.464Z,"    0"
2017-07-19T01:13:09.369Z,"    0"
2017-07-19T01:18:05.570Z,"    0"
2017-07-19T01:23:04.623Z,"    0"
2017-07-19T01:28:00.788Z,"    0"
2017-07-19T01:32:57.723Z,"    0"
2017-07-19T01:37:56.393Z,"    0"
2017-07-19T01:42:58.195Z,"    0"
2017-07-19T01:47:52.844Z,"    0"
2017-07-19T01:52:48.864Z,"    0"
2017-07-19T01:57:44.767Z,"    0"
2017-07-19T02:02:42.001Z,"    0"
2017-07-19T02:07:37.678Z,"    0"
2017-07-19T02:12:33.842Z,"    0"
2017-07-19T02:17:30.964Z,"    0"
2017-07-19T02:22:28.199Z,"    0"
2017-07-19T02:27:23.648Z,"    0"
2017-07-19T02:32:19.584Z,"    0"
2017-07-19T02:37:15.562Z,"    0"
2017-07-19T02:42:11.676Z,"    0"
2017-07-19T02:47:08.499Z,"    0"
2017-07-19T02:52:04.475Z,"    0"
2017-07-19T02:57:00.399Z,"    0"
2017-07-19T03:01:56.258Z,"    0"
2017-07-19T03:06:52.772Z,"    0"
2017-07-19T03:11:48.450Z,"    0"
2017-07-19T03:16:45.039Z,"    0"
2017-07-19T03:21:41.027Z,"    0"
2017-07-19T03:26:36.937Z,"    0"
2017-07-19T03:31:33.829Z,"    5"
2017-07-19T03:41:31.984Z,"   10"
2017-07-19T03:46:28.257Z,"   10"
2017-07-19T03:51:24.038Z,"   15"
2017-07-19T03:56:20.266Z,"   20"
2017-07-19T04:01:16.401Z,"   25"
2017-07-19T04:06:12.348Z,"   35"
2017-07-19T04:11:08.388Z,"   40"
2017-07-19T04:16:04.838Z,"   45"
2017-07-19T04:21:03.121Z,"   55"
2017-07-19T04:25:58.891Z,"   55"
2017-07-19T04:30:55.308Z,"   65"
2017-07-19T04:35:51.376Z,"   75"
2017-07-19T04:40:47.945Z,"   75"
2017-07-19T04:45:45.160Z,"   75"
2017-07-19T04:50:42.166Z,"  100"
2017-07-19T04:55:38.506Z,"  110"
2017-07-19T05:00:35.867Z,"  120"
2017-07-19T05:05:33.042Z,"  125"
2017-07-19T05:10:30.439Z,"  130"
2017-07-19T05:15:27.540Z,"  135"
2017-07-19T05:20:27.819Z,"  135"
2017-07-19T05:25:23.114Z,"  140"
2017-07-19T05:30:18.904Z,"  145"
2017-07-19T05:35:14.873Z,"  155"
2017-07-19T05:40:11.086Z,"  175"
2017-07-19T05:45:07.242Z,"  155"
2017-07-19T05:50:03.369Z,"  160"
2017-07-19T05:54:59.744Z,"  145"
2017-07-19T05:59:56.860Z,"  145"
2017-07-19T06:04:52.391Z,"  155"
2017-07-19T06:09:48.476Z,"  160"
2017-07-19T06:14:44.597Z,"  170"
2017-07-19T06:19:41.868Z,"  170"
2017-07-19T06:24:38.338Z,"  165"
2017-07-19T06:29:35.167Z,"  170"
2017-07-19T06:34:31.310Z,"  180"
2017-07-19T06:39:29.238Z,"  205"
2017-07-19T06:44:26.076Z,"  185"
2017-07-19T06:49:22.906Z,"  185"
2017-07-19T06:54:18.827Z,"  190"
2017-07-19T06:59:16.147Z,"  195"
2017-07-19T07:04:11.713Z,"  200"
2017-07-19T07:09:07.892Z,"  210"
2017-07-19T07:14:05.086Z,"  230"
2017-07-19T07:19:02.929Z,"  215"
2017-07-19T07:23:59.072Z,"  215"
2017-07-19T07:28:55.214Z,"  220"
2017-07-19T07:33:51.841Z,"  225"
2017-07-19T07:38:48.316Z,"  235"
2017-07-19T07:43:45.311Z,"  245"
2017-07-19T07:48:41.202Z,"  265"
2017-07-19T07:53:38.581Z,"  335"
2017-07-19T07:58:35.412Z,"  910"
2017-07-19T08:03:33.142Z,"  900"
2017-07-19T08:08:31.749Z,"  880"
2017-07-19T08:13:28.323Z,"  835"
2017-07-19T08:18:25.988Z,"  915"
2017-07-19T08:23:22.930Z," 1010"
2017-07-19T08:28:20.165Z," 1000"
2017-07-19T08:33:18.060Z,"  880"
2017-07-19T08:38:14.223Z,"  935"
2017-07-19T08:43:10.706Z,"  880"
2017-07-19T08:48:06.738Z,"  525"
2017-07-19T08:53:01.982Z,"  700"
2017-07-19T08:57:58.731Z,"  935"
2017-07-19T09:02:56.103Z,"  885"
2017-07-19T09:07:52.958Z,"  685"
2017-07-19T09:12:49.971Z," 1345"
2017-07-19T09:17:48.235Z," 1250"
2017-07-19T09:22:45.823Z,"  955"
2017-07-19T09:27:41.204Z,"  770"
2017-07-19T09:32:39.228Z," 1025"
2017-07-19T09:37:35.360Z," 1335"
2017-07-19T09:42:33.902Z," 1470"
2017-07-19T09:47:30.931Z,"  800"
2017-07-19T09:52:27.076Z," 1455"
2017-07-19T09:57:24.040Z," 1705"
2017-07-19T10:02:20.850Z," 1645"
2017-07-19T10:07:17.508Z," 1645"
2017-07-19T10:12:13.734Z," 1390"
2017-07-19T10:17:10.474Z," 1670"
2017-07-19T10:22:07.189Z," 1605"
2017-07-19T10:27:05.905Z," 1590"
2017-07-19T10:32:02.119Z," 1655"
2017-07-19T10:36:58.703Z," 1855"
2017-07-19T10:41:57.480Z," 1840"
2017-07-19T10:46:53.393Z," 1805"
2017-07-19T10:51:49.857Z," 1580"
2017-07-19T10:56:47.776Z," 1680"
2017-07-19T11:01:44.061Z," 1850"
2017-07-19T11:06:40.557Z," 1815"
2017-07-19T11:11:36.835Z," 1840"
2017-07-19T11:16:33.514Z," 1740"
2017-07-19T11:21:30.240Z," 1840"
2017-07-19T11:26:27.989Z," 1710"
2017-07-19T11:31:24.341Z," 1750"
2017-07-19T11:36:20.867Z," 1800"
2017-07-19T11:41:17.513Z," 1715"
2017-07-19T11:46:14.150Z," 1635"
2017-07-19T11:51:09.788Z," 1550"
2017-07-19T11:56:03.934Z," 1105"
2017-07-19T12:00:58.512Z," 1025"
2017-07-19T12:05:54.063Z,"  955"
2017-07-19T12:10:51.032Z," 1465"
2017-07-19T12:15:48.400Z," 1745"
2017-07-19T12:20:45.750Z," 1875"
2017-07-19T12:25:44.560Z," 1745"
2017-07-19T12:30:40.906Z," 1480"
2017-07-19T12:35:36.439Z," 1415"
2017-07-19T12:40:32.523Z," 1480"
2017-07-19T12:45:29.152Z," 1775"
2017-07-19T12:50:25.931Z," 1255"
2017-07-19T12:55:21.466Z," 1450"
2017-07-19T13:00:16.877Z," 1375"
2017-07-19T13:05:13.049Z," 1435"
2017-07-19T13:10:09.692Z,"  870"
2017-07-19T13:15:08.066Z," 1745"
2017-07-19T13:20:03.667Z," 1730"
2017-07-19T13:25:00.329Z," 1865"
2017-07-19T13:29:57.300Z," 1710"
2017-07-19T13:34:54.457Z," 1745"
2017-07-19T13:39:53.382Z," 1675"
2017-07-19T13:44:48.606Z," 1480"
2017-07-19T13:49:44.797Z," 1155"
2017-07-19T13:54:42.934Z,"  730"
2017-07-19T13:59:39.067Z,"  960"
2017-07-19T14:04:35.524Z,"  645"
2017-07-19T14:09:31.090Z,"  575"
2017-07-19T14:14:26.494Z,"  525"
2017-07-19T14:19:23.451Z,"  360"
2017-07-19T14:24:18.929Z,"  315"
2017-07-19T14:29:14.888Z,"  295"
2017-07-19T14:34:11.101Z,"  270"
2017-07-19T14:39:08.219Z,"  220"
2017-07-19T14:44:03.662Z,"  205"
2017-07-19T14:48:59.510Z,"  195"
2017-07-19T14:53:55.372Z,"  185"
2017-07-19T14:58:51.433Z,"  175"
2017-07-19T15:03:47.251Z,"  140"
2017-07-19T15:08:43.311Z,"  110"
2017-07-19T15:13:40.082Z,"   75"
2017-07-19T15:18:36.517Z,"   55"
2017-07-19T15:23:32.087Z,"   40"
2017-07-19T15:28:28.068Z,"   20"
2017-07-19T15:33:24.675Z,"   10"
2017-07-19T15:38:21.914Z,"   10"
2017-07-19T15:43:16.557Z,"   10"
2017-07-19T15:48:11.857Z,"    5"
2017-07-19T15:53:07.312Z,"    5"
2017-07-19T15:58:02.978Z,"    0"
2017-07-19T16:02:57.899Z,"    0"
2017-07-19T16:07:54.245Z,"    0"
2017-07-19T16:12:50.484Z,"    5"
2017-07-19T16:17:45.630Z,"    5"
2017-07-19T16:22:42.273Z,"    5"
2017-07-19T16:27:38.637Z,"    5"
2017-07-19T16:32:34.893Z,"   10"
2017-07-19T16:37:30.475Z,"   10"
2017-07-19T16:42:26.129Z,"   15"
2017-07-19T16:47:21.853Z,"   15"
2017-07-19T16:52:18.445Z,"   25"
2017-07-19T16:57:16.384Z,"   35"
2017-07-19T17:02:11.968Z,"   50"
2017-07-19T17:07:09.276Z,"   65"
2017-07-19T17:12:06.205Z,"   75"
2017-07-19T17:17:02.480Z,"  100"
2017-07-19T17:21:58.626Z,"  115"
2017-07-19T17:26:54.878Z,"  120"
2017-07-19T17:31:51.871Z,"  125"
2017-07-19T17:36:47.941Z,"  130"
2017-07-19T17:41:44.016Z,"  130"
2017-07-19T17:46:41.478Z,"  130"
2017-07-19T17:51:37.356Z,"  120"
2017-07-19T17:56:33.720Z,"  115"
2017-07-19T18:01:29.824Z,"  110"
2017-07-19T18:06:25.791Z,"  105"
2017-07-19T18:11:22.419Z,"  100"
2017-07-19T18:16:18.822Z,"  100"
2017-07-19T18:21:16.359Z,"   90"
2017-07-19T18:26:12.061Z,"   75"
2017-07-19T18:31:09.037Z,"   50"
2017-07-19T18:36:04.587Z,"   45"
2017-07-19T18:41:00.188Z,"   45"
2017-07-19T18:45:56.283Z,"   40"
2017-07-19T18:50:52.931Z,"   30"
2017-07-19T18:55:48.659Z,"   20"
2017-07-19T19:00:44.645Z,"   20"
2017-07-19T19:05:42.533Z,"   15"
2017-07-19T19:10:39.238Z,"   15"
2017-07-19T19:15:34.926Z,"   10"
2017-07-19T19:20:31.234Z,"   10"
2017-07-19T19:25:26.998Z,"   10"
2017-07-19T19:30:22.793Z,"    5"
2017-07-19T19:35:19.374Z,"    5"
2017-07-19T19:40:16.845Z,"    0"
2017-07-19T19:45:12.200Z,"    0"
2017-07-19T19:50:08.458Z,"    0"
2017-07-19T19:55:05.465Z,"    0"
2017-07-19T20:00:01.196Z,"    0"
2017-07-19T20:04:59.331Z,"    0"
2017-07-19T20:09:54.559Z,"    0"
2017-07-19T20:14:50.273Z,"    0"
2017-07-19T20:19:46.867Z,"    0"
2017-07-19T20:24:43.390Z,"    0"
2017-07-19T20:29:38.974Z,"    0"
2017-07-19T20:34:35.823Z,"    0"
2017-07-19T20:39:31.461Z,"    0"
2017-07-19T20:44:28.392Z,"    0"
2017-07-19T20:49:24.505Z,"    0"
2017-07-19T20:54:21.360Z,"    0"
2017-07-19T20:59:17.566Z,"    0"
2017-07-19T21:04:15.147Z,"    0"
2017-07-19T21:09:11.739Z,"    0"
2017-07-19T21:14:08.702Z,"    0"
2017-07-19T21:19:04.436Z,"    0"
2017-07-19T21:24:00.788Z,"    0"
2017-07-19T21:28:57.575Z,"    0"
2017-07-19T21:33:53.621Z,"    0"
2017-07-19T21:38:50.658Z,"    0"
2017-07-19T21:43:46.394Z,"    0"
2017-07-19T21:48:42.972Z,"    0"
2017-07-19T21:53:39.836Z,"    0"
2017-07-19T21:58:35.546Z,"    0"
2017-07-19T22:03:31.896Z,"    0"
2017-07-19T22:08:27.656Z,"    0"
2017-07-19T22:13:23.828Z,"    0"
2017-07-19T22:18:20.818Z,"    0"
2017-07-19T22:23:18.320Z,"    0"
2017-07-19T22:28:14.578Z,"    0"
2017-07-19T22:33:11.304Z,"    0"
2017-07-19T22:38:08.391Z,"    0"
2017-07-19T22:43:05.028Z,"    0"
2017-07-19T22:48:02.050Z,"    0"
2017-07-19T22:52:57.893Z,"    0"
2017-07-19T22:57:54.031Z,"    0"
2017-07-19T23:02:50.716Z,"    0"
2017-07-19T23:07:46.744Z,"    0"
2017-07-19T23:12:44.844Z,"    0"
2017-07-19T23:17:41.263Z,"    0"
2017-07-19T23:22:37.063Z,"    0"
2017-07-19T23:27:32.906Z,"    0"
2017-07-19T23:32:28.789Z,"    0"
2017-07-19T23:37:27.891Z,"    0"
2017-07-19T23:42:23.506Z,"    0"
2017-07-19T23:47:20.924Z,"    0"
2017-07-19T23:52:17.656Z,"    0"
2017-07-19T23:57:14.334Z,"    0"
